Time;durP1;ratioP1;P1;durP2;ratioP2;P2;SDS_P1;SDS_P2;PMS_P1;PMS_P2;Temp;Humidity;BMP_temperature;BMP_pressure;BME280_temperature;BME280_humidity;BME280_pressure;Samples;Min_cycle;Max_cycle;Signal;HPM_P1;HPM_P2
2024/03/04 00:06:46;;;;;;;;;;;9.70;99.90;;;;;;6741772;88;20066;-76
2024/03/04 00:16:48;;;;;;;;;;;9.70;99.90;;;;;;6737503;88;20064;-77
2024/03/04 00:26:48;;;;;;;;;;;9.60;99.90;;;;;;6731641;88;20424;-76
2024/03/04 00:36:49;;;;;;;;;;;9.60;99.90;;;;;;6733482;88;20055;-76
2024/03/04 00:46:49;;;;;;;;;;;9.60;99.90;;;;;;6733405;88;20862;-76
2024/03/04 00:56:50;;;;;;;;;;;9.60;99.90;;;;;;6735395;88;20502;-76
2024/03/04 01:06:52;;;;;;;;;;;9.30;99.90;;;;;;6735274;88;20059;-76
2024/03/04 01:16:52;;;;;;;;;;;9.00;99.90;;;;;;6731263;88;20082;-77
2024/03/04 01:26:52;;;;;;;;;;;8.90;99.90;;;;;;6736366;88;20073;-76
2024/03/04 01:36:53;;;;;;;;;;;8.80;99.90;;;;;;6751741;88;20184;-75
2024/03/04 01:46:54;;;;;;;;;;;8.60;99.90;;;;;;6739943;88;20128;-76
2024/03/04 01:56:54;;;;;;;;;;;8.60;99.90;;;;;;6740382;88;20125;-76
2024/03/04 02:06:55;;;;;;;;;;;8.50;99.90;;;;;;6740518;88;20085;-76
2024/03/04 02:16:55;;;;;;;;;;;8.20;99.90;;;;;;6737588;88;20226;-76
2024/03/04 02:26:56;;;;;;;;;;;8.20;99.90;;;;;;6741170;88;20046;-77
2024/03/04 02:36:57;;;;;;;;;;;8.20;99.90;;;;;;6738199;88;20074;-77
2024/03/04 02:46:58;;;;;;;;;;;8.10;99.90;;;;;;6731492;88;20577;-76
2024/03/04 02:56:58;;;;;;;;;;;8.10;99.90;;;;;;6736350;88;20230;-76
2024/03/04 03:06:59;;;;;;;;;;;8.20;99.90;;;;;;6741253;88;20448;-76
2024/03/04 03:16:59;;;;;;;;;;;8.20;99.90;;;;;;6737458;88;21090;-76
2024/03/04 03:26:59;;;;;;;;;;;8.20;99.90;;;;;;6739030;88;20073;-77
2024/03/04 03:37:00;;;;;;;;;;;8.20;99.90;;;;;;6737888;88;20105;-77
2024/03/04 03:47:01;;;;;;;;;;;8.10;99.90;;;;;;6736210;88;20066;-77
2024/03/04 03:57:02;;;;;;;;;;;8.00;99.90;;;;;;6734878;88;20078;-77
2024/03/04 04:07:02;;;;;;;;;;;7.90;99.90;;;;;;6736140;88;20066;-76
2024/03/04 04:17:04;;;;;;;;;;;7.90;99.90;;;;;;6738812;88;20208;-76
2024/03/04 04:27:04;;;;;;;;;;;8.00;99.90;;;;;;6736890;88;20081;-77
2024/03/04 04:37:05;;;;;;;;;;;8.00;99.90;;;;;;6740959;88;20499;-76
2024/03/04 04:47:05;;;;;;;;;;;8.00;99.90;;;;;;6735605;88;20070;-76
2024/03/04 05:07:09;;;;;;;;;;;8.20;99.90;;;;;;6727431;88;20096;-79
2024/03/04 05:17:10;;;;;;;;;;;8.20;99.90;;;;;;6708989;88;20167;-79
2024/03/04 05:27:11;;;;;;;;;;;8.30;99.90;;;;;;6706602;88;20070;-79
2024/03/04 05:37:11;;;;;;;;;;;8.20;99.90;;;;;;6701542;88;20167;-79
2024/03/04 05:47:12;;;;;;;;;;;8.20;99.90;;;;;;6706488;88;20101;-79
2024/03/04 05:57:13;;;;;;;;;;;8.20;99.90;;;;;;6707910;88;20064;-78
2024/03/04 06:07:15;;;;;;;;;;;8.10;99.90;;;;;;6713660;88;20067;-79
2024/03/04 06:17:16;;;;;;;;;;;8.10;99.90;;;;;;6703741;88;20059;-79
2024/03/04 06:27:16;;;;;;;;;;;8.10;99.90;;;;;;6705701;88;20075;-78
2024/03/04 06:37:17;;;;;;;;;;;8.10;99.90;;;;;;6707423;88;20944;-76
2024/03/04 06:47:18;;;;;;;;;;;8.10;99.90;;;;;;6708011;88;20102;-76
2024/03/04 06:57:18;;;;;;;;;;;8.10;99.90;;;;;;6704048;88;20103;-77
2024/03/04 07:07:19;;;;;;;;;;;8.10;99.90;;;;;;6704463;88;20065;-77
2024/03/04 07:17:19;;;;;;;;;;;8.20;99.90;;;;;;6705374;88;20064;-77
2024/03/04 07:27:19;;;;;;;;;;;8.10;99.90;;;;;;6701551;88;20231;-77
2024/03/04 07:37:20;;;;;;;;;;;8.20;99.90;;;;;;6707595;88;20048;-77
2024/03/04 07:47:20;;;;;;;;;;;8.10;99.90;;;;;;6707245;88;20514;-77
2024/03/04 07:57:21;;;;;;;;;;;8.20;99.90;;;;;;6701852;88;20096;-77
2024/03/04 08:07:21;;;;;;;;;;;8.10;99.90;;;;;;6698198;88;20562;-77
2024/03/04 08:17:22;;;;;;;;;;;8.10;99.90;;;;;;6705130;88;20105;-77
2024/03/04 08:27:22;;;;;;;;;;;8.20;99.90;;;;;;6702359;88;20209;-77
2024/03/04 08:37:22;;;;;;;;;;;8.10;99.90;;;;;;6703426;88;20047;-78
2024/03/04 08:47:23;;;;;;;;;;;8.10;99.90;;;;;;6707750;88;20078;-77
2024/03/04 08:57:23;;;;;;;;;;;8.10;99.90;;;;;;6710502;88;20059;-76
2024/03/04 09:07:27;;;;;;;;;;;8.10;99.90;;;;;;6702453;88;20619;-76
2024/03/04 09:17:28;;;;;;;;;;;8.30;99.90;;;;;;6703145;88;20578;-76
2024/03/04 09:27:28;;;;;;;;;;;8.30;99.90;;;;;;6698945;88;20063;-77
2024/03/04 09:37:28;;;;;;;;;;;8.50;99.90;;;;;;6696133;88;20122;-76
2024/03/04 09:47:29;;;;;;;;;;;8.50;99.90;;;;;;6698776;88;20536;-77
2024/03/04 09:57:30;;;;;;;;;;;8.60;99.90;;;;;;6698729;88;20136;-77
2024/03/04 10:07:35;;;;;;;;;;;8.50;99.90;;;;;;6698718;88;20557;-76
2024/03/04 10:17:37;;;;;;;;;;;8.50;99.90;;;;;;6707584;88;20070;-77
2024/03/04 10:27:38;;;;;;;;;;;8.50;99.90;;;;;;6702202;88;20085;-76
2024/03/04 10:37:39;;;;;;;;;;;8.60;99.90;;;;;;6703150;88;20060;-77
2024/03/04 10:47:41;;;;;;;;;;;8.60;99.90;;;;;;6709362;88;20112;-77
2024/03/04 10:57:42;;;;;;;;;;;8.70;99.90;;;;;;6703969;77;20130;-78
2024/03/04 11:07:43;;;;;;;;;;;8.60;99.90;;;;;;6722471;88;20231;-77
2024/03/04 11:17:46;;;;;;;;;;;8.40;99.90;;;;;;6724674;88;20485;-77
2024/03/04 11:27:48;;;;;;;;;;;8.50;99.90;;;;;;6725335;88;20125;-76
2024/03/04 11:37:52;;;;;;;;;;;8.60;99.90;;;;;;6722500;88;20075;-77
2024/03/04 11:47:53;;;;;;;;;;;8.70;99.90;;;;;;6724154;88;20068;-77
2024/03/04 11:57:53;;;;;;;;;;;8.90;99.90;;;;;;6720832;88;20571;-76
2024/03/04 12:07:54;;;;;;;;;;;8.80;99.90;;;;;;6721012;88;20055;-76
2024/03/04 12:17:54;;;;;;;;;;;9.00;99.90;;;;;;6719158;88;20055;-76
2024/03/04 12:27:55;;;;;;;;;;;8.90;99.90;;;;;;6720716;88;20095;-77
2024/03/04 12:37:56;;;;;;;;;;;9.20;99.90;;;;;;6720371;88;20594;-77
2024/03/04 12:47:57;;;;;;;;;;;9.30;99.90;;;;;;6723291;88;20644;-76
2024/03/04 12:57:58;;;;;;;;;;;9.20;99.90;;;;;;6721475;88;20141;-76
2024/03/04 13:07:58;;;;;;;;;;;9.30;99.90;;;;;;6718472;88;20058;-76
2024/03/04 13:17:59;;;;;;;;;;;9.70;99.90;;;;;;6716171;88;20082;-76
2024/03/04 13:27:59;;;;;;;;;;;9.80;99.90;;;;;;6717965;88;20048;-76
2024/03/04 13:38:00;;;;;;;;;;;9.80;99.90;;;;;;6718592;88;20059;-76
2024/03/04 13:48:02;;;;;;;;;;;9.90;99.90;;;;;;6723229;88;20598;-77
2024/03/04 13:58:03;;;;;;;;;;;9.90;99.90;;;;;;6724313;88;20105;-77
2024/03/04 14:08:04;;;;;;;;;;;9.90;99.90;;;;;;6718002;88;20062;-77
2024/03/04 14:18:04;;;;;;;;;;;10.10;99.90;;;;;;6720384;88;20116;-77
2024/03/04 14:28:05;;;;;;;;;;;10.20;99.90;;;;;;6717048;88;20485;-77
2024/03/04 14:38:06;;;;;;;;;;;10.30;99.90;;;;;;6716296;88;20070;-77
2024/03/04 14:48:07;;;;;;;;;;;10.40;99.90;;;;;;6721855;88;20091;-77
2024/03/04 14:58:07;;;;;;;;;;;10.40;99.90;;;;;;6721038;88;20088;-76
2024/03/04 15:08:08;;;;;;;;;;;10.30;99.90;;;;;;6721498;88;20546;-76
2024/03/04 15:18:08;;;;;;;;;;;10.40;99.90;;;;;;6725473;88;20163;-76
2024/03/04 15:28:11;;;;;;;;;;;10.30;99.90;;;;;;6717105;88;20076;-77
2024/03/04 15:38:11;;;;;;;;;;;10.30;99.90;;;;;;6716948;88;20052;-76
2024/03/04 15:48:12;;;;;;;;;;;10.40;99.90;;;;;;6727079;88;20183;-76
2024/03/04 15:58:12;;;;;;;;;;;10.50;99.90;;;;;;6718839;88;20070;-77
2024/03/04 16:08:12;;;;;;;;;;;10.40;99.90;;;;;;6718953;88;20170;-76
2024/03/04 16:18:15;;;;;;;;;;;10.40;99.90;;;;;;6718380;88;20128;-77
2024/03/04 16:28:15;;;;;;;;;;;10.30;99.90;;;;;;6718325;88;20178;-76
2024/03/04 16:38:18;;;;;;;;;;;10.30;99.90;;;;;;6718388;88;20190;-76
2024/03/04 16:48:18;;;;;;;;;;;10.20;99.90;;;;;;6723846;88;20047;-76
2024/03/04 16:58:19;;;;;;;;;;;10.00;99.90;;;;;;6720247;88;20058;-76
2024/03/04 17:08:19;;;;;;;;;;;9.90;99.90;;;;;;6737193;77;20079;-80
2024/03/04 17:18:20;;;;;;;;;;;9.80;99.90;;;;;;6713053;88;20506;-79
2024/03/04 17:28:20;;;;;;;;;;;9.60;99.90;;;;;;6687545;88;20061;-77
2024/03/04 17:38:21;;;;;;;;;;;9.50;99.90;;;;;;6697564;88;20059;-77
2024/03/04 17:48:21;;;;;;;;;;;9.50;99.90;;;;;;6705202;88;20099;-78
2024/03/04 17:58:21;;;;;;;;;;;9.60;99.90;;;;;;6706863;88;20111;-79
2024/03/04 18:08:22;;;;;;;;;;;9.60;99.90;;;;;;6715782;88;20121;-81
2024/03/04 18:18:23;;;;;;;;;;;9.70;99.90;;;;;;6715810;88;20845;-80
2024/03/04 18:28:23;;;;;;;;;;;9.50;99.90;;;;;;6719401;88;20063;-79
2024/03/04 18:38:23;;;;;;;;;;;9.50;99.90;;;;;;6724053;88;20029;-79
2024/03/04 18:48:24;;;;;;;;;;;9.40;99.90;;;;;;6730908;88;20396;-82
2024/03/04 18:58:24;;;;;;;;;;;9.30;99.90;;;;;;6724867;88;20060;-79
2024/03/04 19:08:27;;;;;;;;;;;9.30;99.90;;;;;;6727109;88;20076;-79
2024/03/04 19:18:28;;;;;;;;;;;9.30;99.90;;;;;;6729761;88;20085;-79
2024/03/04 19:28:28;;;;;;;;;;;9.20;99.90;;;;;;6718921;88;20657;-80
2024/03/04 19:38:29;;;;;;;;;;;9.10;99.90;;;;;;6722707;88;20055;-81
2024/03/04 19:48:29;;;;;;;;;;;9.10;99.90;;;;;;6730275;88;20036;-82
2024/03/04 19:58:30;;;;;;;;;;;9.00;99.90;;;;;;6715332;88;20071;-81
2024/03/04 20:08:31;;;;;;;;;;;9.00;99.90;;;;;;6712556;88;20077;-80
2024/03/04 20:18:31;;;;;;;;;;;9.10;99.90;;;;;;6710688;88;20097;-78
2024/03/04 20:28:33;;;;;;;;;;;9.00;99.90;;;;;;6706916;88;20086;-79
2024/03/04 20:38:33;;;;;;;;;;;9.00;99.90;;;;;;6706157;88;20148;-78
2024/03/04 20:48:35;;;;;;;;;;;8.90;99.90;;;;;;6703960;88;20186;-79
2024/03/04 20:58:37;;;;;;;;;;;8.80;99.90;;;;;;6700277;88;20121;-78
2024/03/04 21:08:38;;;;;;;;;;;8.90;99.90;;;;;;6705173;88;20063;-79
2024/03/04 21:18:38;;;;;;;;;;;8.80;99.90;;;;;;6706802;88;20137;-79
2024/03/04 21:28:39;;;;;;;;;;;8.80;99.90;;;;;;6710635;88;20058;-81
2024/03/04 21:38:40;;;;;;;;;;;8.80;99.90;;;;;;6717508;88;20778;-77
2024/03/04 21:48:41;;;;;;;;;;;8.70;99.90;;;;;;6723193;88;20099;-78
2024/03/04 21:58:42;;;;;;;;;;;8.30;99.90;;;;;;6716770;88;20082;-80
2024/03/04 22:08:42;;;;;;;;;;;8.20;99.90;;;;;;6724845;88;20073;-78
2024/03/04 22:18:43;;;;;;;;;;;8.10;99.90;;;;;;6722777;88;20081;-79
2024/03/04 22:28:43;;;;;;;;;;;7.90;99.90;;;;;;6721114;88;20090;-80
2024/03/04 22:38:44;;;;;;;;;;;7.60;99.90;;;;;;6718407;88;20061;-80
2024/03/04 22:48:44;;;;;;;;;;;7.70;99.90;;;;;;6716024;88;20055;-79
2024/03/04 22:58:45;;;;;;;;;;;7.60;99.90;;;;;;6719727;88;20063;-80
2024/03/04 23:19:27;;;;;;;;;;;7.50;99.90;;;;;;6722116;88;20592;-78
2024/03/04 23:29:27;;;;;;;;;;;7.50;99.90;;;;;;6721702;88;20183;-78
2024/03/04 23:39:29;;;;;;;;;;;7.20;99.90;;;;;;6721643;88;20063;-78
2024/03/04 23:49:29;;;;;;;;;;;7.10;99.90;;;;;;6720509;88;20392;-78
2024/03/04 23:59:30;;;;;;;;;;;7.10;99.90;;;;;;6721478;88;20050;-78
